createdAt,value
2022-09-23T00:02:29.925Z,101278.03
2022-09-23T00:05:33.117Z,101269.28
2022-09-23T00:08:35.241Z,101262.22
2022-09-23T00:11:38.323Z,101270.34
2022-09-23T00:14:40.301Z,101268.66
2022-09-23T00:17:42.581Z,101265.22
2022-09-23T00:20:45.164Z,101270.66
2022-09-23T00:23:47.638Z,101266.34
2022-09-23T00:26:49.737Z,101275.19
2022-09-23T00:29:51.985Z,101270.91
2022-09-23T00:32:54.023Z,101262.16
2022-09-23T00:36:04.443Z,101256.00
2022-09-23T00:39:06.661Z,101259.56
2022-09-23T00:42:18.849Z,101255.19
2022-09-23T00:45:21.067Z,101257.09
2022-09-23T00:48:23.397Z,101256.19
2022-09-23T00:51:31.467Z,101265.13
2022-09-23T00:54:34.076Z,101258.09
2022-09-23T00:57:37.550Z,101263.41
2022-09-23T01:00:39.881Z,101265.22
2022-09-23T01:03:44.901Z,101262.69
2022-09-23T01:07:09.145Z,101255.59
2022-09-23T01:10:13.740Z,101260.88
2022-09-23T01:13:23.261Z,101252.91
2022-09-23T01:16:36.346Z,101254.72
2022-09-23T01:20:04.054Z,101261.78
2022-09-23T01:23:46.689Z,101251.13
2022-09-23T01:26:57.942Z,101250.25
2022-09-23T01:30:12.227Z,101255.47
2022-09-23T01:33:30.686Z,101249.31
2022-09-23T01:36:42.381Z,101243.03
2022-09-23T01:39:53.941Z,101239.47
2022-09-23T01:43:15.679Z,101241.19
2022-09-23T01:46:22.206Z,101243.84
2022-09-23T01:49:39.011Z,101241.09
2022-09-23T01:52:47.247Z,101234.03
2022-09-23T01:55:52.136Z,101249.75
2022-09-23T01:59:06.011Z,101254.06
2022-09-23T02:02:15.315Z,101234.47
2022-09-23T02:05:37.727Z,101249.31
2022-09-23T02:09:08.275Z,101247.38
2022-09-23T02:12:15.780Z,101246.44
2022-09-23T02:15:29.341Z,101243.59
2022-09-23T02:18:42.622Z,101252.25
2022-09-23T02:21:55.464Z,101252.25
2022-09-23T02:24:57.918Z,101259.19
2022-09-23T02:28:11.752Z,101244.03
2022-09-23T02:31:37.254Z,101248.31
2022-09-23T02:35:10.418Z,101249.88
2022-09-23T02:38:31.182Z,101240.13
2022-09-23T02:41:55.614Z,101249.75
2022-09-23T02:44:58.971Z,101253.13
2022-09-23T02:48:27.196Z,101254.84
2022-09-23T02:51:29.670Z,101254.63
2022-09-23T02:54:35.455Z,101248.34
2022-09-23T02:57:38.029Z,101245.63
2022-09-23T03:01:06.221Z,101257.00
2022-09-23T03:04:08.628Z,101259.50
2022-09-23T03:07:48.252Z,101258.47
2022-09-23T03:11:11.253Z,101251.19
2022-09-23T03:14:32.119Z,101263.47
2022-09-23T03:18:12.198Z,101256.22
2022-09-23T03:21:38.476Z,101262.25
2022-09-23T03:24:44.883Z,101261.13
2022-09-23T03:27:46.942Z,101254.97
2022-09-23T03:30:53.314Z,101255.69
2022-09-23T03:33:58.123Z,101262.69
2022-09-23T03:37:11.244Z,101262.66
2022-09-23T03:40:17.385Z,101252.75
2022-09-23T03:43:20.054Z,101259.72
2022-09-23T03:46:25.339Z,101245.66
2022-09-23T03:49:35.394Z,101249.13
2022-09-23T03:52:39.779Z,101239.28
2022-09-23T03:55:42.152Z,101250.91
2022-09-23T03:58:46.431Z,101241.22
2022-09-23T04:01:48.836Z,101251.69
2022-09-23T04:04:51.384Z,101243.66
2022-09-23T04:07:54.913Z,101236.47
2022-09-23T04:11:04.726Z,101247.13
2022-09-23T04:14:07.270Z,101240.00
2022-09-23T04:17:09.771Z,101243.41
2022-09-23T04:20:12.462Z,101239.91
2022-09-23T04:23:14.599Z,101249.50
2022-09-23T04:26:16.910Z,101234.38
2022-09-23T04:29:19.659Z,101237.81
2022-09-23T04:32:21.923Z,101242.16
2022-09-23T04:35:23.925Z,101242.84
2022-09-23T04:38:26.291Z,101243.56
2022-09-23T04:41:28.375Z,101231.81
2022-09-23T04:44:31.079Z,101245.03
2022-09-23T04:47:33.165Z,101245.91
2022-09-23T04:50:35.403Z,101247.63
2022-09-23T04:53:39.286Z,101236.75
2022-09-23T04:56:42.264Z,101244.53
2022-09-23T04:59:45.316Z,101240.19
2022-09-23T05:02:49.760Z,101251.47
2022-09-23T05:05:51.880Z,101244.47
2022-09-23T05:08:56.187Z,101240.88
2022-09-23T05:11:58.301Z,101239.19
2022-09-23T05:15:00.647Z,101246.09
2022-09-23T05:18:02.710Z,101244.38
2022-09-23T05:21:05.152Z,101244.78
2022-09-23T05:24:07.486Z,101243.28
2022-09-23T05:27:09.757Z,101239.16
2022-09-23T05:30:12.509Z,101247.44
2022-09-23T05:33:14.936Z,101232.31
2022-09-23T05:36:20.726Z,101247.03
2022-09-23T05:39:23.085Z,101245.53
2022-09-23T05:42:25.203Z,101239.66
2022-09-23T05:45:27.537Z,101234.50
2022-09-23T05:48:31.942Z,101241.03
2022-09-23T05:51:35.800Z,101242.88
2022-09-23T05:54:38.451Z,101237.88
2022-09-23T05:57:40.673Z,101245.97
2022-09-23T06:00:44.210Z,101251.47
2022-09-23T06:03:47.777Z,101253.31
2022-09-23T06:06:49.781Z,101250.94
2022-09-23T06:09:53.956Z,101250.25
2022-09-23T06:12:55.997Z,101250.28
2022-09-23T06:15:58.586Z,101242.47
2022-09-23T06:19:06.154Z,101244.25
2022-09-23T06:22:10.853Z,101241.78
2022-09-23T06:25:14.173Z,101245.38
2022-09-23T06:28:16.410Z,101244.63
2022-09-23T06:31:18.500Z,101253.53
2022-09-23T06:34:21.445Z,101245.75
2022-09-23T06:37:24.301Z,101250.22
2022-09-23T06:40:26.720Z,101252.06
2022-09-23T06:43:29.461Z,101245.31
2022-09-23T06:46:31.869Z,101241.06
2022-09-23T06:49:34.008Z,101239.47
2022-09-23T06:52:36.205Z,101222.84
2022-09-23T06:55:38.342Z,101230.13
2022-09-23T06:58:41.277Z,101229.38
2022-09-23T07:01:45.360Z,101240.31
2022-09-23T07:04:47.700Z,101238.84
2022-09-23T07:07:49.814Z,101234.81
2022-09-23T07:10:56.992Z,101231.69
2022-09-23T07:13:59.049Z,101237.16
2022-09-23T07:17:01.959Z,101235.75
2022-09-23T07:20:04.274Z,101232.50
2022-09-23T07:23:06.636Z,101233.66
2022-09-23T07:26:08.927Z,101235.72
2022-09-23T07:29:13.814Z,101234.91
2022-09-23T07:32:16.751Z,101232.25
2022-09-23T07:35:19.373Z,101225.19
2022-09-23T07:38:24.731Z,101229.66
2022-09-23T07:41:28.850Z,101218.09
2022-09-23T07:44:32.037Z,101225.22
2022-09-23T07:47:34.964Z,101231.34
2022-09-23T07:50:39.465Z,101218.84
2022-09-23T07:53:41.879Z,101223.16
2022-09-23T07:56:44.433Z,101225.81
2022-09-23T07:59:46.874Z,101218.75
2022-09-23T08:02:52.798Z,101223.19
2022-09-23T08:06:04.474Z,101217.84
2022-09-23T08:09:06.607Z,101215.16
2022-09-23T08:12:16.962Z,101213.13
2022-09-23T08:15:18.925Z,101205.06
2022-09-23T08:18:21.179Z,101212.16
2022-09-23T08:21:23.352Z,101203.75
2022-09-23T08:24:26.535Z,101186.66
2022-09-23T08:27:29.717Z,101193.06
2022-09-23T08:30:32.094Z,101190.75
2022-09-23T08:33:34.167Z,101195.06
2022-09-23T08:36:36.678Z,101185.75
2022-09-23T08:39:38.700Z,101195.03
2022-09-23T08:42:43.905Z,101169.53
2022-09-23T08:45:46.488Z,101188.22
2022-09-23T08:48:49.528Z,101186.09
2022-09-23T08:51:54.873Z,101188.22
2022-09-23T08:54:57.220Z,101173.28
2022-09-23T08:58:25.349Z,101194.13
2022-09-23T09:01:38.877Z,101187.03
2022-09-23T09:04:44.434Z,101184.63
2022-09-23T09:07:46.851Z,101170.00
2022-09-23T09:10:49.618Z,101175.75
2022-09-23T09:14:20.572Z,101158.00
2022-09-23T09:17:30.640Z,101171.25
2022-09-23T09:20:38.961Z,101171.00
2022-09-23T09:23:58.297Z,101170.50
2022-09-23T09:27:13.474Z,101166.25
2022-09-23T09:30:16.575Z,101166.84
2022-09-23T09:33:22.221Z,101158.66
2022-09-23T09:36:40.128Z,101156.63
2022-09-23T09:39:42.430Z,101149.88
2022-09-23T09:42:49.515Z,101157.56
2022-09-23T09:46:34.259Z,101150.34
2022-09-23T09:49:40.795Z,101152.28
2022-09-23T09:52:43.176Z,101148.13
2022-09-23T09:55:46.152Z,101138.25
2022-09-23T09:58:55.250Z,101141.13
2022-09-23T10:02:24.476Z,101138.00
2022-09-23T10:05:28.341Z,101133.56
2022-09-23T10:08:35.047Z,101136.09
2022-09-23T10:11:38.285Z,101124.09
2022-09-23T10:14:40.362Z,101125.94
2022-09-23T10:17:42.819Z,101123.00
2022-09-23T10:20:46.189Z,101124.75
2022-09-23T10:23:52.910Z,101116.09
2022-09-23T10:27:04.501Z,101111.81
2022-09-23T10:30:28.022Z,101105.16
2022-09-23T10:33:31.701Z,101108.13
2022-09-23T10:36:33.978Z,101103.31
2022-09-23T10:39:54.546Z,101096.00
2022-09-23T10:43:24.502Z,101092.38
2022-09-23T10:46:39.708Z,101102.97
2022-09-23T10:49:57.589Z,101108.75
2022-09-23T10:53:11.909Z,101112.34
2022-09-23T10:56:52.526Z,101096.53
2022-09-23T11:00:14.651Z,101106.84
2022-09-23T11:03:30.490Z,101104.06
2022-09-23T11:07:01.680Z,101087.88
2022-09-23T11:10:47.110Z,101099.50
2022-09-23T11:14:08.198Z,101098.56
2022-09-23T11:17:22.495Z,101086.19
2022-09-23T11:20:58.709Z,101081.81
2022-09-23T11:24:15.976Z,101083.38
2022-09-23T11:27:42.950Z,101082.41
2022-09-23T11:30:51.382Z,101082.44
2022-09-23T11:34:00.546Z,101075.31
2022-09-23T11:37:19.837Z,101057.28
2022-09-23T11:40:31.675Z,101060.09
2022-09-23T11:43:36.409Z,101058.38
2022-09-23T11:46:42.482Z,101055.56
2022-09-23T11:49:51.762Z,101055.75
2022-09-23T11:53:02.669Z,101058.75
2022-09-23T11:56:12.288Z,101051.03
2022-09-23T11:59:43.438Z,101058.16
2022-09-23T12:03:00.542Z,101060.31
2022-09-23T12:06:15.131Z,101055.97
2022-09-23T12:09:58.288Z,101050.63
2022-09-23T12:13:27.302Z,101053.28
2022-09-23T12:16:56.031Z,101049.94
2022-09-23T12:20:01.045Z,101048.66
2022-09-23T12:23:26.794Z,101051.91
2022-09-23T12:26:29.870Z,101046.38
2022-09-23T12:29:32.728Z,101033.34
2022-09-23T12:32:34.874Z,101033.72
2022-09-23T12:35:41.453Z,101033.63
2022-09-23T12:38:52.634Z,101035.25
2022-09-23T12:42:01.513Z,101030.38
2022-09-23T12:45:38.664Z,101030.31
2022-09-23T12:49:08.256Z,101027.88
2022-09-23T12:52:16.713Z,101024.31
2022-09-23T12:55:24.935Z,101023.03
2022-09-23T12:58:58.259Z,101019.63
2022-09-23T13:02:37.775Z,101027.22
2022-09-23T13:06:17.115Z,101018.91
2022-09-23T13:09:24.897Z,101027.66
2022-09-23T13:12:33.476Z,101020.88
2022-09-23T13:15:36.862Z,101026.69
2022-09-23T13:18:51.055Z,101021.31
2022-09-23T13:21:53.344Z,101021.31
2022-09-23T13:25:01.083Z,101007.84
2022-09-23T13:28:04.029Z,101012.56
2022-09-23T13:31:10.909Z,101016.97
2022-09-23T13:34:16.705Z,101013.59
2022-09-23T13:37:24.076Z,101004.16
2022-09-23T13:40:28.641Z,101007.50
2022-09-23T13:43:58.606Z,100996.41
2022-09-23T13:47:03.524Z,100990.91
2022-09-23T13:50:06.353Z,100987.88
2022-09-23T13:53:11.960Z,100990.41
2022-09-23T13:56:15.603Z,100988.53
2022-09-23T13:59:37.285Z,100988.69
2022-09-23T14:02:47.101Z,100977.94
2022-09-23T14:05:50.043Z,100986.53
2022-09-23T14:08:52.448Z,100978.84
2022-09-23T14:11:59.869Z,100976.41
2022-09-23T14:15:02.029Z,100970.91
2022-09-23T14:18:06.748Z,100977.06
2022-09-23T14:21:35.391Z,100968.06
2022-09-23T14:24:38.616Z,100971.06
2022-09-23T14:27:42.222Z,100961.13
2022-09-23T14:30:48.249Z,100963.66
2022-09-23T14:33:50.610Z,100963.75
2022-09-23T14:37:11.795Z,100959.97
2022-09-23T14:40:17.472Z,100952.28
2022-09-23T14:43:25.339Z,100964.03
2022-09-23T14:46:30.764Z,100962.53
2022-09-23T14:49:33.327Z,100958.38
2022-09-23T14:52:35.486Z,100965.16
2022-09-23T14:55:38.255Z,100958.69
2022-09-23T14:58:51.975Z,100952.69
2022-09-23T15:01:55.256Z,100960.91
2022-09-23T15:05:17.890Z,100967.34
2022-09-23T15:08:23.390Z,100956.34
2022-09-23T15:11:26.732Z,100956.38
2022-09-23T15:14:39.448Z,100935.34
2022-09-23T15:17:43.359Z,100949.19
2022-09-23T15:20:52.273Z,100935.41
2022-09-23T15:23:55.664Z,100932.44
2022-09-23T15:26:58.026Z,100940.00
2022-09-23T15:30:19.657Z,100946.63
2022-09-23T15:33:28.093Z,100927.19
2022-09-23T15:36:30.235Z,100939.03
2022-09-23T15:39:36.411Z,100939.44
2022-09-23T15:42:38.760Z,100937.66
2022-09-23T15:45:45.028Z,100934.91
2022-09-23T15:49:01.413Z,100936.97
2022-09-23T15:52:05.645Z,100945.78
2022-09-23T15:55:24.177Z,100923.72
2022-09-23T15:58:27.682Z,100924.75
2022-09-23T16:01:36.489Z,100931.81
2022-09-23T16:04:39.275Z,100947.19
2022-09-23T16:07:41.439Z,100949.88
2022-09-23T16:10:44.013Z,100955.66
2022-09-23T16:13:46.859Z,100958.34
2022-09-23T16:16:49.995Z,100957.38
2022-09-23T16:19:52.428Z,100954.72
2022-09-23T16:22:58.081Z,100960.19
2022-09-23T16:26:09.649Z,100952.16
2022-09-23T16:29:17.209Z,100945.97
2022-09-23T16:32:22.405Z,100953.13
2022-09-23T16:35:26.279Z,100960.34
2022-09-23T16:38:29.242Z,100953.25
2022-09-23T16:41:32.434Z,100955.13
2022-09-23T16:44:36.639Z,100941.81
2022-09-23T16:47:44.958Z,100953.50
2022-09-23T16:50:47.707Z,100946.47
2022-09-23T16:53:51.394Z,100951.13
2022-09-23T16:56:55.307Z,100937.00
2022-09-23T17:00:16.344Z,100933.59
2022-09-23T17:03:37.035Z,100938.09
2022-09-23T17:06:50.317Z,100944.44
2022-09-23T17:09:52.642Z,100932.09
2022-09-23T17:12:55.104Z,100937.53
2022-09-23T17:15:57.723Z,100939.44
2022-09-23T17:19:04.759Z,100943.03
2022-09-23T17:22:08.000Z,100934.22
2022-09-23T17:25:12.521Z,100946.81
2022-09-23T17:28:16.863Z,100954.06
2022-09-23T17:31:19.648Z,100953.25
2022-09-23T17:34:22.032Z,100948.94
2022-09-23T17:37:24.421Z,100957.00
2022-09-23T17:40:26.783Z,100970.41
2022-09-23T17:43:31.098Z,100973.25
2022-09-23T17:46:33.203Z,100966.38
2022-09-23T17:49:35.558Z,100970.72
2022-09-23T17:52:37.737Z,100972.47
2022-09-23T17:55:40.159Z,100968.03
2022-09-23T17:58:44.061Z,100972.44
2022-09-23T18:01:46.480Z,100969.81
2022-09-23T18:04:49.095Z,100970.66
2022-09-23T18:07:51.575Z,100975.97
2022-09-23T18:10:53.582Z,100977.75
2022-09-23T18:14:01.688Z,100965.28
2022-09-23T18:17:03.878Z,100968.88
2022-09-23T18:20:07.004Z,100977.84
2022-09-23T18:23:09.160Z,100976.13
2022-09-23T18:26:16.149Z,100977.94
2022-09-23T18:29:18.696Z,100979.75
2022-09-23T18:32:21.143Z,100974.44
2022-09-23T18:35:23.804Z,100980.81
2022-09-23T18:38:26.270Z,100981.78
2022-09-23T18:41:28.577Z,100975.53
2022-09-23T18:44:31.656Z,100976.41
2022-09-23T18:47:52.721Z,100981.81
2022-09-23T18:50:58.182Z,100980.03
2022-09-23T18:54:01.654Z,100980.03
2022-09-23T18:57:04.499Z,100987.25
2022-09-23T19:00:09.229Z,100982.78
2022-09-23T19:03:11.698Z,100989.13
2022-09-23T19:06:21.038Z,100978.44
2022-09-23T19:09:24.611Z,100986.47
2022-09-23T19:12:26.793Z,100974.06
2022-09-23T19:15:29.190Z,100977.66
2022-09-23T19:18:32.144Z,100974.06
2022-09-23T19:21:34.810Z,100975.91
2022-09-23T19:24:37.012Z,100979.47
2022-09-23T19:27:40.347Z,100982.13
2022-09-23T19:30:42.536Z,100979.53
2022-09-23T19:33:49.818Z,100989.34
2022-09-23T19:36:57.327Z,100982.28
2022-09-23T19:39:59.770Z,100984.09
2022-09-23T19:43:01.822Z,100983.19
2022-09-23T19:46:09.209Z,100984.16
2022-09-23T19:49:11.913Z,100985.97
2022-09-23T19:52:14.476Z,100975.34
2022-09-23T19:55:16.584Z,100976.25
2022-09-23T19:58:18.886Z,100980.69
2022-09-23T20:01:22.324Z,100969.19
2022-09-23T20:04:24.945Z,100979.03
2022-09-23T20:07:27.027Z,100979.91
2022-09-23T20:10:29.376Z,100972.84
2022-09-23T20:13:33.895Z,100973.72
2022-09-23T20:16:37.324Z,100978.19
2022-09-23T20:19:40.572Z,100975.53
2022-09-23T20:22:42.991Z,100971.13
2022-09-23T20:26:03.526Z,100970.25
2022-09-23T20:29:06.065Z,100978.25
2022-09-23T20:32:09.333Z,100976.47
2022-09-23T20:35:11.906Z,100972.94
2022-09-23T20:38:14.013Z,100961.38
2022-09-23T20:41:17.266Z,100963.16
2022-09-23T20:44:19.380Z,100967.53
2022-09-23T20:47:23.773Z,100966.63
2022-09-23T20:50:25.931Z,100965.72
2022-09-23T20:53:28.454Z,100965.66
2022-09-23T20:56:31.062Z,100973.63
2022-09-23T20:59:34.402Z,100961.19
2022-09-23T21:02:36.664Z,100966.47
2022-09-23T21:05:42.165Z,100969.06
2022-09-23T21:08:44.892Z,100969.91
2022-09-23T21:11:47.247Z,100970.81
2022-09-23T21:14:49.402Z,100967.16
2022-09-23T21:17:52.438Z,100976.00
2022-09-23T21:20:58.104Z,100972.31
2022-09-23T21:24:24.484Z,100970.50
2022-09-23T21:27:23.021Z,100960.66
2022-09-23T21:30:25.718Z,100974.84
2022-09-23T21:33:28.690Z,100975.72
2022-09-23T21:36:33.221Z,100972.13
2022-09-23T21:39:35.355Z,100969.41
2022-09-23T21:42:37.809Z,100979.94
2022-09-23T21:45:40.172Z,100978.19
2022-09-23T21:48:43.089Z,100964.00
2022-09-23T21:51:45.363Z,100976.38
2022-09-23T21:54:47.781Z,100971.94
2022-09-23T21:57:51.921Z,100978.19
2022-09-23T22:00:57.714Z,100973.69
2022-09-23T22:04:08.225Z,100978.97
2022-09-23T22:07:10.879Z,100987.59
2022-09-23T22:10:12.936Z,100982.34
2022-09-23T22:13:16.468Z,100974.47
2022-09-23T22:16:19.043Z,100971.84
2022-09-23T22:19:21.330Z,100969.94
2022-09-23T22:22:23.426Z,100970.91
2022-09-23T22:25:26.058Z,100974.47
2022-09-23T22:28:46.868Z,100964.75
2022-09-23T22:32:08.146Z,100973.66
2022-09-23T22:35:17.955Z,100958.56
2022-09-23T22:38:21.220Z,100957.66
2022-09-23T22:41:24.368Z,100952.34
2022-09-23T22:44:26.694Z,100948.59
2022-09-23T22:47:28.700Z,100954.72
2022-09-23T22:50:30.958Z,100957.47
2022-09-23T22:53:33.577Z,100952.16
2022-09-23T22:56:36.065Z,100944.22
2022-09-23T22:59:38.284Z,100949.53
2022-09-23T23:02:42.479Z,100950.47
2022-09-23T23:05:45.892Z,100940.53
2022-09-23T23:08:48.193Z,100944.78
2022-09-23T23:11:50.210Z,100940.38
2022-09-23T23:14:52.678Z,100930.78
2022-09-23T23:17:59.212Z,100928.19
2022-09-23T23:21:16.034Z,100930.81
2022-09-23T23:24:23.250Z,100926.31
2022-09-23T23:27:25.632Z,100942.88
2022-09-23T23:30:27.683Z,100938.28
2022-09-23T23:33:29.930Z,100941.69
2022-09-23T23:36:31.951Z,100947.16
2022-09-23T23:39:34.716Z,100943.59
2022-09-23T23:42:36.805Z,100936.50
2022-09-23T23:45:39.111Z,100927.47
2022-09-23T23:48:43.015Z,100925.75
2022-09-23T23:51:45.379Z,100939.00
2022-09-23T23:54:47.405Z,100932.72
2022-09-23T23:57:51.640Z,100937.94
